createdAt,value
2016-09-04T00:00:27.334Z,1010.3
2016-09-04T00:01:27.299Z,1010.29
2016-09-04T00:02:27.247Z,1010.31
2016-09-04T00:03:27.198Z,1010.26
2016-09-04T00:04:27.171Z,1010.28
2016-09-04T00:05:27.112Z,1010.29
2016-09-04T00:06:27.069Z,1010.29
2016-09-04T00:07:27.028Z,1010.27
2016-09-04T00:08:26.975Z,1010.27
2016-09-04T00:09:27.139Z,1010.28
2016-09-04T00:10:26.890Z,1010.26
2016-09-04T00:11:26.846Z,1010.25
2016-09-04T00:12:26.796Z,1010.28
2016-09-04T00:13:26.758Z,1010.26
2016-09-04T00:14:26.719Z,1010.26
2016-09-04T00:15:26.671Z,1010.27
2016-09-04T00:16:26.652Z,1010.22
2016-09-04T00:17:26.778Z,1010.23
2016-09-04T00:18:26.539Z,1010.23
2016-09-04T00:19:26.516Z,1010.22
2016-09-04T00:20:26.442Z,1010.28
2016-09-04T00:21:26.398Z,1010.21
2016-09-04T00:22:26.360Z,1010.22
2016-09-04T00:23:26.316Z,1010.21
2016-09-04T00:24:26.267Z,1010.18
2016-09-04T00:25:26.229Z,1010.19
2016-09-04T00:26:26.381Z,1010.18
2016-09-04T00:27:26.139Z,1010.2
2016-09-04T00:28:26.093Z,1010.2
2016-09-04T00:29:26.048Z,1010.19
2016-09-04T00:30:26.006Z,1010.18
2016-09-04T00:31:25.960Z,1010.17
2016-09-04T00:32:25.914Z,1010.15
2016-09-04T00:33:25.867Z,1010.16
2016-09-04T00:34:25.826Z,1010.2
2016-09-04T00:35:25.980Z,1010.19
2016-09-04T00:36:25.734Z,1010.18
2016-09-04T00:37:25.687Z,1010.16
2016-09-04T00:38:25.649Z,1010.15
2016-09-04T00:39:25.599Z,1010.15
2016-09-04T00:40:25.555Z,1010.19
2016-09-04T00:41:25.530Z,1010.13
2016-09-04T00:42:25.469Z,1010.12
2016-09-04T00:43:25.426Z,1010.11
2016-09-04T00:44:25.391Z,1010.11
2016-09-04T00:45:25.339Z,1010.11
2016-09-04T00:46:25.291Z,1010.09
2016-09-04T00:47:25.246Z,1010.07
2016-09-04T00:48:25.204Z,1010.12
2016-09-04T00:49:25.158Z,1010.08
2016-09-04T00:50:25.113Z,1010.08
2016-09-04T00:51:25.678Z,1010.05
2016-09-04T00:52:25.228Z,1010.05
2016-09-04T00:53:24.978Z,1010.04
2016-09-04T00:54:25.140Z,1010.02
2016-09-04T00:55:24.891Z,1009.99
2016-09-04T00:56:24.848Z,1009.97
2016-09-04T00:57:24.808Z,1010.01
2016-09-04T00:58:24.759Z,1010.01
2016-09-04T00:59:24.711Z,1010.03
2016-09-04T01:00:24.668Z,1009.99
2016-09-04T01:01:24.629Z,1009.98
2016-09-04T01:02:24.578Z,1009.96
2016-09-04T01:03:24.537Z,1010.01
2016-09-04T01:04:24.493Z,1010.02
2016-09-04T01:05:24.447Z,1010.02
2016-09-04T01:06:24.399Z,1009.98
2016-09-04T01:07:24.359Z,1010.02
2016-09-04T01:08:24.314Z,1010.06
2016-09-04T01:09:24.271Z,1010.04
2016-09-04T01:10:24.227Z,1010.01
2016-09-04T01:11:24.188Z,1010.03
2016-09-04T01:12:24.144Z,1010.02
2016-09-04T01:13:24.092Z,1010.03
2016-09-04T01:14:24.048Z,1010
2016-09-04T01:15:24.004Z,1009.98
2016-09-04T01:16:23.959Z,1009.98
2016-09-04T01:17:23.914Z,1010.01
2016-09-04T01:18:23.886Z,1009.95
2016-09-04T01:19:24.055Z,1009.96
2016-09-04T01:20:23.846Z,1009.97
2016-09-04T01:21:23.858Z,1009.96
2016-09-04T01:22:23.712Z,1009.95
2016-09-04T01:23:23.766Z,1009.94
2016-09-04T01:24:23.612Z,1009.91
2016-09-04T01:25:23.570Z,1009.89
2016-09-04T01:26:23.794Z,1009.88
2016-09-04T01:27:23.471Z,1009.86
2016-09-04T01:28:23.430Z,1009.85
2016-09-04T01:29:23.389Z,1009.82
2016-09-04T01:30:23.340Z,1009.82
2016-09-04T01:31:23.494Z,1009.82
2016-09-04T01:32:23.251Z,1009.76
2016-09-04T01:33:23.211Z,1009.79
2016-09-04T01:34:23.165Z,1009.74
2016-09-04T01:35:23.117Z,1009.77
2016-09-04T01:36:23.078Z,1009.76
2016-09-04T01:37:23.028Z,1009.8
2016-09-04T01:38:22.997Z,1009.78
2016-09-04T01:39:22.945Z,1009.76
2016-09-04T01:40:22.899Z,1009.78
2016-09-04T01:41:22.862Z,1009.72
2016-09-04T01:42:22.808Z,1009.72
2016-09-04T01:43:22.769Z,1009.69
2016-09-04T01:44:22.719Z,1009.7
2016-09-04T01:45:22.679Z,1009.66
2016-09-04T01:46:22.647Z,1009.67
2016-09-04T01:47:22.588Z,1009.66
2016-09-04T01:48:22.547Z,1009.65
2016-09-04T01:49:22.496Z,1009.65
2016-09-04T01:50:22.462Z,1009.64
2016-09-04T01:51:22.618Z,1009.61
2016-09-04T01:52:22.566Z,1009.58
2016-09-04T01:53:22.326Z,1009.61
2016-09-04T01:54:22.476Z,1009.62
2016-09-04T01:55:22.439Z,1009.6
2016-09-04T01:56:22.188Z,1009.61
2016-09-04T01:57:22.144Z,1009.6
2016-09-04T01:58:22.103Z,1009.6
2016-09-04T01:59:22.274Z,1009.58
2016-09-04T02:00:22.211Z,1009.59
2016-09-04T02:01:21.986Z,1009.58
2016-09-04T02:02:21.930Z,1009.61
2016-09-04T02:03:21.884Z,1009.68
2016-09-04T02:04:21.835Z,1009.66
2016-09-04T02:05:21.794Z,1009.62
2016-09-04T02:06:21.751Z,1009.58
2016-09-04T02:07:21.910Z,1009.64
2016-09-04T02:08:21.660Z,1009.64
2016-09-04T02:09:21.620Z,1009.67
2016-09-04T02:10:21.573Z,1009.67
2016-09-04T02:11:21.528Z,1009.7
2016-09-04T02:12:21.486Z,1009.75
2016-09-04T02:13:21.440Z,1009.75
2016-09-04T02:14:21.593Z,1009.76
2016-09-04T02:15:21.351Z,1009.76
2016-09-04T02:16:21.307Z,1009.77
2016-09-04T02:17:21.262Z,1009.73
2016-09-04T02:18:21.215Z,1009.78
2016-09-04T02:19:21.188Z,1009.83
2016-09-04T02:20:21.140Z,1009.82
2016-09-04T02:21:21.086Z,1009.78
2016-09-04T02:22:21.049Z,1009.8
2016-09-04T02:23:21.406Z,1009.8
2016-09-04T02:24:20.953Z,1009.83
2016-09-04T02:25:21.315Z,1009.82
2016-09-04T02:26:20.869Z,1009.79
2016-09-04T02:27:20.832Z,1009.81
2016-09-04T02:28:20.776Z,1009.8
2016-09-04T02:29:20.737Z,1009.79
2016-09-04T02:30:20.686Z,1009.8
2016-09-04T02:31:20.849Z,1009.82
2016-09-04T02:32:20.806Z,1009.84
2016-09-04T02:33:20.558Z,1009.84
2016-09-04T02:34:20.512Z,1009.87
2016-09-04T02:35:20.466Z,1009.81
2016-09-04T02:36:20.429Z,1009.76
2016-09-04T02:37:20.385Z,1009.78
2016-09-04T02:38:20.334Z,1009.75
2016-09-04T02:39:20.493Z,1009.75
2016-09-04T02:40:20.247Z,1009.72
2016-09-04T02:41:20.220Z,1009.74
2016-09-04T02:42:20.158Z,1009.73
2016-09-04T02:43:20.158Z,1009.73
2016-09-04T02:44:20.074Z,1009.83
2016-09-04T02:45:20.029Z,1009.79
2016-09-04T02:46:19.984Z,1009.83
2016-09-04T02:47:19.938Z,1009.82
2016-09-04T02:48:19.899Z,1009.85
2016-09-04T02:49:19.851Z,1009.79
2016-09-04T02:50:19.808Z,1009.82
2016-09-04T02:51:19.758Z,1009.77
2016-09-04T02:52:19.717Z,1009.78
2016-09-04T02:53:19.676Z,1009.8
2016-09-04T02:54:19.630Z,1009.77
2016-09-04T02:55:19.581Z,1009.76
2016-09-04T02:56:19.539Z,1009.84
2016-09-04T02:57:19.698Z,1009.75
2016-09-04T02:58:19.448Z,1009.77
2016-09-04T02:59:19.403Z,1009.73
2016-09-04T03:00:19.360Z,1009.8
2016-09-04T03:01:19.318Z,1009.83
2016-09-04T03:02:19.272Z,1009.85
2016-09-04T03:03:19.226Z,1009.81
2016-09-04T03:04:19.184Z,1009.83
2016-09-04T03:05:19.139Z,1009.84
2016-09-04T03:06:19.095Z,1009.85
2016-09-04T03:08:19.007Z,1009.83
2016-09-04T03:09:18.958Z,1009.86
2016-09-04T03:10:18.912Z,1009.89
2016-09-04T03:11:18.881Z,1009.89
2016-09-04T03:12:18.825Z,1009.9
2016-09-04T03:13:18.984Z,1009.85
2016-09-04T03:14:18.735Z,1009.86
2016-09-04T03:15:18.898Z,1009.9
2016-09-04T03:16:18.645Z,1009.85
2016-09-04T03:17:18.603Z,1009.85
2016-09-04T03:18:18.557Z,1009.81
2016-09-04T03:19:18.515Z,1009.82
2016-09-04T03:20:18.478Z,1009.82
2016-09-04T03:21:18.429Z,1009.74
2016-09-04T03:22:18.782Z,1009.68
2016-09-04T03:23:18.338Z,1009.68
2016-09-04T03:24:18.293Z,1009.68
2016-09-04T03:25:18.456Z,1009.67
2016-09-04T03:26:18.206Z,1009.59
2016-09-04T03:27:18.155Z,1009.55
2016-09-04T03:28:18.113Z,1009.56
2016-09-04T03:29:18.067Z,1009.47
2016-09-04T03:30:18.027Z,1009.46
2016-09-04T03:31:18.185Z,1009.43
2016-09-04T03:32:18.150Z,1009.36
2016-09-04T03:33:17.896Z,1009.28
2016-09-04T03:34:17.845Z,1009.29
2016-09-04T03:35:17.807Z,1009.33
2016-09-04T03:36:17.758Z,1009.39
2016-09-04T03:37:17.714Z,1009.39
2016-09-04T03:38:17.665Z,1009.42
2016-09-04T03:39:17.627Z,1009.48
2016-09-04T03:40:17.588Z,1009.52
2016-09-04T03:41:17.529Z,1009.55
2016-09-04T03:42:17.559Z,1009.53
2016-09-04T03:43:17.447Z,1009.56
2016-09-04T03:44:17.397Z,1009.51
2016-09-04T03:45:17.357Z,1009.52
2016-09-04T03:46:17.307Z,1009.51
2016-09-04T03:47:17.267Z,1009.52
2016-09-04T03:48:17.234Z,1009.51
2016-09-04T03:49:17.178Z,1009.52
2016-09-04T03:50:17.338Z,1009.52
2016-09-04T03:51:17.080Z,1009.46
2016-09-04T03:52:17.043Z,1009.49
2016-09-04T03:53:17.205Z,1009.49
2016-09-04T03:54:17.150Z,1009.51
2016-09-04T03:55:16.908Z,1009.5
2016-09-04T03:56:16.860Z,1009.47
2016-09-04T03:57:16.818Z,1009.47
2016-09-04T03:58:16.776Z,1009.48
2016-09-04T03:59:16.726Z,1009.45
2016-09-04T04:00:16.695Z,1009.46
2016-09-04T04:01:16.636Z,1009.44
2016-09-04T04:02:16.588Z,1009.41
2016-09-04T04:03:16.545Z,1009.38
2016-09-04T04:04:16.499Z,1009.35
2016-09-04T04:05:16.452Z,1009.35
2016-09-04T04:06:16.413Z,1009.29
2016-09-04T04:07:16.366Z,1009.26
2016-09-04T04:08:16.320Z,1009.31
2016-09-04T04:09:16.273Z,1009.3
2016-09-04T04:10:16.435Z,1009.36
2016-09-04T04:11:16.185Z,1009.33
2016-09-04T04:12:16.141Z,1009.33
2016-09-04T04:13:16.099Z,1009.28
2016-09-04T04:14:16.057Z,1009.29
2016-09-04T04:15:16.005Z,1009.28
2016-09-04T04:16:16.166Z,1009.29
2016-09-04T04:17:15.918Z,1009.29
2016-09-04T04:18:15.877Z,1009.28
2016-09-04T04:19:16.029Z,1009.25
2016-09-04T04:20:15.791Z,1009.27
2016-09-04T04:21:15.737Z,1009.24
2016-09-04T04:22:15.697Z,1009.25
2016-09-04T04:23:15.647Z,1009.2
2016-09-04T04:24:15.606Z,1009.24
2016-09-04T04:25:15.557Z,1009.21
2016-09-04T04:26:15.512Z,1009.21
2016-09-04T04:27:15.464Z,1009.24
2016-09-04T04:28:15.429Z,1009.18
2016-09-04T04:29:15.378Z,1009.14
2016-09-04T04:30:15.327Z,1009.17
2016-09-04T04:31:15.285Z,1009.18
2016-09-04T04:32:15.248Z,1009.14
2016-09-04T04:33:15.202Z,1009.12
2016-09-04T04:34:15.150Z,1009.15
2016-09-04T04:35:15.108Z,1009.19
2016-09-04T04:36:15.270Z,1009.17
2016-09-04T04:37:15.213Z,1009.17
2016-09-04T04:38:14.967Z,1009.22
2016-09-04T04:39:14.924Z,1009.18
2016-09-04T04:40:14.877Z,1009.2
2016-09-04T04:41:14.838Z,1009.23
2016-09-04T04:42:14.799Z,1009.2
2016-09-04T04:43:14.747Z,1009.17
2016-09-04T04:44:14.697Z,1009.2
2016-09-04T04:45:14.651Z,1009.2
2016-09-04T04:46:14.607Z,1009.22
2016-09-04T04:47:14.573Z,1009.25
2016-09-04T04:48:14.513Z,1009.27
2016-09-04T04:49:14.477Z,1009.24
2016-09-04T04:50:14.429Z,1009.24
2016-09-04T04:51:14.379Z,1009.27
2016-09-04T04:52:14.333Z,1009.28
2016-09-04T04:53:14.287Z,1009.33
2016-09-04T04:54:14.447Z,1009.3
2016-09-04T04:55:14.198Z,1009.3
2016-09-04T04:56:14.154Z,1009.31
2016-09-04T04:57:14.105Z,1009.34
2016-09-04T04:58:14.057Z,1009.36
2016-09-04T04:59:14.018Z,1009.38
2016-09-04T05:00:13.970Z,1009.35
2016-09-04T05:01:13.923Z,1009.34
2016-09-04T05:02:13.877Z,1009.38
2016-09-04T05:03:13.836Z,1009.34
2016-09-04T05:04:13.790Z,1009.36
2016-09-04T05:05:13.948Z,1009.35
2016-09-04T05:06:13.899Z,1009.3
2016-09-04T05:07:13.648Z,1009.36
2016-09-04T05:08:13.606Z,1009.32
2016-09-04T05:09:13.560Z,1009.28
2016-09-04T05:10:13.510Z,1009.28
2016-09-04T05:11:13.467Z,1009.31
2016-09-04T05:12:13.430Z,1009.3
2016-09-04T05:13:13.383Z,1009.3
2016-09-04T05:14:13.335Z,1009.32
2016-09-04T05:15:13.287Z,1009.36
2016-09-04T05:16:13.240Z,1009.37
2016-09-04T05:17:13.406Z,1009.41
2016-09-04T05:18:13.148Z,1009.4
2016-09-04T05:19:13.102Z,1009.42
2016-09-04T05:20:13.058Z,1009.42
2016-09-04T05:21:13.012Z,1009.45
2016-09-04T05:22:12.967Z,1009.51
2016-09-04T05:23:12.936Z,1009.52
2016-09-04T05:24:13.074Z,1009.54
2016-09-04T05:25:13.043Z,1009.57
2016-09-04T05:26:12.781Z,1009.55
2016-09-04T05:27:12.747Z,1009.56
2016-09-04T05:28:12.706Z,1009.55
2016-09-04T05:29:12.853Z,1009.61
2016-09-04T05:30:12.601Z,1009.64
2016-09-04T05:31:12.557Z,1009.66
2016-09-04T05:32:12.507Z,1009.66
2016-09-04T05:33:12.462Z,1009.63
2016-09-04T05:34:12.417Z,1009.73
2016-09-04T05:35:12.369Z,1009.68
2016-09-04T05:36:12.328Z,1009.75
2016-09-04T05:37:12.280Z,1009.71
2016-09-04T05:38:12.237Z,1009.65
2016-09-04T05:39:12.187Z,1009.64
2016-09-04T05:40:12.146Z,1009.61
2016-09-04T05:41:12.106Z,1009.54
2016-09-04T05:42:12.055Z,1009.51
2016-09-04T05:43:12.007Z,1009.5
2016-09-04T05:44:11.962Z,1009.53
2016-09-04T05:45:11.918Z,1009.53
2016-09-04T05:46:11.879Z,1009.5
2016-09-04T05:47:11.832Z,1009.53
2016-09-04T05:48:11.777Z,1009.51
2016-09-04T05:49:11.929Z,1009.5
2016-09-04T05:50:11.684Z,1009.49
2016-09-04T05:51:11.702Z,1009.49
2016-09-04T05:52:11.597Z,1009.48
2016-09-04T05:53:11.546Z,1009.47
2016-09-04T05:54:11.704Z,1009.49
2016-09-04T05:55:11.467Z,1009.44
2016-09-04T05:56:11.417Z,1009.46
2016-09-04T05:57:11.369Z,1009.45
2016-09-04T05:58:11.318Z,1009.51
2016-09-04T05:59:11.277Z,1009.5
2016-09-04T06:00:11.230Z,1009.5
2016-09-04T06:01:11.181Z,1009.52
2016-09-04T06:02:11.138Z,1009.48
2016-09-04T06:03:11.304Z,1009.49
2016-09-04T06:04:11.053Z,1009.46
2016-09-04T06:05:11.007Z,1009.51
2016-09-04T06:06:10.950Z,1009.56
2016-09-04T06:07:10.915Z,1009.51
2016-09-04T06:08:10.866Z,1009.55
2016-09-04T06:09:10.829Z,1009.55
2016-09-04T06:10:10.778Z,1009.51
2016-09-04T06:11:10.727Z,1009.47
2016-09-04T06:12:10.683Z,1009.42
2016-09-04T06:13:10.638Z,1009.35
2016-09-04T06:14:10.591Z,1009.35
2016-09-04T06:15:10.547Z,1009.36
2016-09-04T06:16:10.497Z,1009.38
2016-09-04T06:17:10.657Z,1009.43
2016-09-04T06:18:10.405Z,1009.4
2016-09-04T06:19:10.366Z,1009.4
2016-09-04T06:20:10.318Z,1009.39
2016-09-04T06:21:10.272Z,1009.36
2016-09-04T06:22:10.226Z,1009.38
2016-09-04T06:23:10.179Z,1009.33
2016-09-04T06:24:10.331Z,1009.3
2016-09-04T06:25:10.092Z,1009.33
2016-09-04T06:26:10.247Z,1009.3
2016-09-04T06:27:10.204Z,1009.24
2016-09-04T06:28:09.952Z,1009.18
2016-09-04T06:29:09.975Z,1009.15
2016-09-04T06:30:09.863Z,1009.24
2016-09-04T06:31:09.817Z,1009.31
2016-09-04T06:32:09.769Z,1009.34
2016-09-04T06:33:09.725Z,1009.34
2016-09-04T06:34:09.679Z,1009.34
2016-09-04T06:35:09.637Z,1009.32
2016-09-04T06:36:09.587Z,1009.33
2016-09-04T06:37:09.544Z,1009.3
2016-09-04T06:38:09.697Z,1009.34
2016-09-04T06:39:09.451Z,1009.33
2016-09-04T06:40:09.405Z,1009.3
2016-09-04T06:41:09.567Z,1009.34
2016-09-04T06:42:09.316Z,1009.35
2016-09-04T06:43:09.267Z,1009.36
2016-09-04T06:44:09.220Z,1009.37
2016-09-04T06:45:09.177Z,1009.35
2016-09-04T06:46:09.132Z,1009.3
2016-09-04T06:47:09.085Z,1009.27
2016-09-04T06:48:09.046Z,1009.25
2016-09-04T06:49:09.193Z,1009.24
2016-09-04T06:50:08.949Z,1009.25
2016-09-04T06:51:08.902Z,1009.18
2016-09-04T06:52:08.855Z,1009.17
2016-09-04T06:53:08.813Z,1009.1
2016-09-04T06:54:08.967Z,1009.12
2016-09-04T06:55:08.718Z,1009.09
2016-09-04T06:56:08.685Z,1009.14
2016-09-04T06:57:08.634Z,1009.1
2016-09-04T06:58:08.585Z,1009.06
2016-09-04T06:59:08.538Z,1009.11
2016-09-04T07:00:08.488Z,1009.07
2016-09-04T07:01:08.447Z,1009.08
2016-09-04T07:02:08.428Z,1009.12
2016-09-04T07:03:08.366Z,1009.08
2016-09-04T07:04:08.316Z,1009.08
2016-09-04T07:05:08.468Z,1009.05
2016-09-04T07:06:08.421Z,1008.98
2016-09-04T07:07:08.172Z,1008.97
2016-09-04T07:08:08.129Z,1009
2016-09-04T07:09:08.086Z,1009.01
2016-09-04T07:10:08.040Z,1008.98
2016-09-04T07:11:07.992Z,1009.02
2016-09-04T07:12:07.950Z,1009.04
2016-09-04T07:13:07.900Z,1009.05
2016-09-04T07:14:07.856Z,1009.03
2016-09-04T07:15:07.809Z,1008.98
2016-09-04T07:16:07.769Z,1008.94
2016-09-04T07:17:07.728Z,1008.96
2016-09-04T07:18:07.678Z,1008.86
2016-09-04T07:19:07.629Z,1008.76
2016-09-04T07:20:07.589Z,1008.74
2016-09-04T07:21:07.537Z,1008.71
2016-09-04T07:22:07.493Z,1008.64
2016-09-04T07:23:07.448Z,1008.61
2016-09-04T07:24:07.400Z,1008.64
2016-09-04T07:25:07.355Z,1008.66
2016-09-04T07:26:07.509Z,1008.66
2016-09-04T07:27:07.269Z,1008.63
2016-09-04T07:28:07.218Z,1008.62
2016-09-04T07:29:07.179Z,1008.66
2016-09-04T07:30:07.124Z,1008.7
2016-09-04T07:31:07.085Z,1008.63
2016-09-04T07:32:07.038Z,1008.61
2016-09-04T07:33:06.997Z,1008.59
2016-09-04T07:34:06.948Z,1008.56
2016-09-04T07:35:06.899Z,1008.56
2016-09-04T07:36:06.857Z,1008.6
2016-09-04T07:37:06.813Z,1008.6
2016-09-04T07:38:06.768Z,1008.59
2016-09-04T07:39:06.718Z,1008.58
2016-09-04T07:40:06.672Z,1008.6
2016-09-04T07:41:06.628Z,1008.58
2016-09-04T07:42:06.584Z,1008.6
2016-09-04T07:43:06.537Z,1008.58
2016-09-04T07:44:06.491Z,1008.64
2016-09-04T07:45:06.486Z,1008.67
2016-09-04T07:46:06.602Z,1008.68
2016-09-04T07:47:06.556Z,1008.71
2016-09-04T07:48:06.317Z,1008.67
2016-09-04T07:49:06.279Z,1008.65
2016-09-04T07:50:06.426Z,1008.7
2016-09-04T07:51:06.175Z,1008.67
2016-09-04T07:52:06.136Z,1008.7
2016-09-04T07:53:06.083Z,1008.68
2016-09-04T07:54:06.038Z,1008.67
2016-09-04T07:55:06.200Z,1008.58
2016-09-04T07:56:06.156Z,1008.58
2016-09-04T07:57:06.119Z,1008.6
2016-09-04T07:58:05.862Z,1008.55
2016-09-04T07:59:06.017Z,1008.61
2016-09-04T08:00:05.773Z,1008.56
2016-09-04T08:01:05.739Z,1008.57
2016-09-04T08:02:05.680Z,1008.55
2016-09-04T08:03:05.636Z,1008.6
2016-09-04T08:04:05.597Z,1008.57
2016-09-04T08:05:05.549Z,1008.53
2016-09-04T08:06:05.503Z,1008.63
2016-09-04T08:07:05.456Z,1008.59
2016-09-04T08:08:05.626Z,1008.54
2016-09-04T08:09:05.378Z,1008.44
2016-09-04T08:10:05.520Z,1008.42
2016-09-04T08:11:05.276Z,1008.44
2016-09-04T08:12:05.237Z,1008.44
2016-09-04T08:13:05.200Z,1008.33
2016-09-04T08:14:05.148Z,1008.31
2016-09-04T08:15:05.098Z,1008.27
2016-09-04T08:16:05.055Z,1008.19
2016-09-04T08:17:05.014Z,1008.08
2016-09-04T08:18:04.960Z,1007.99
2016-09-04T08:19:05.121Z,1007.97
2016-09-04T08:20:04.877Z,1007.98
2016-09-04T08:21:04.836Z,1008.03
2016-09-04T08:22:04.788Z,1008.03
2016-09-04T08:23:04.742Z,1008.05
2016-09-04T08:24:04.697Z,1007.98
2016-09-04T08:25:04.653Z,1007.99
2016-09-04T08:26:04.616Z,1007.95
2016-09-04T08:27:04.564Z,1007.98
2016-09-04T08:28:04.521Z,1007.96
2016-09-04T08:29:04.474Z,1008.04
2016-09-04T08:30:04.433Z,1008.1
2016-09-04T08:31:04.596Z,1008.18
2016-09-04T08:32:04.341Z,1008.09
2016-09-04T08:33:04.509Z,1008.07
2016-09-04T08:34:04.270Z,1008.04
2016-09-04T08:35:04.215Z,1008.12
2016-09-04T08:36:04.209Z,1008.08
2016-09-04T08:37:04.120Z,1008.11
2016-09-04T08:38:04.139Z,1008.17
2016-09-04T08:39:04.032Z,1008.16
2016-09-04T08:40:03.993Z,1008.19
2016-09-04T08:41:03.943Z,1008.23
2016-09-04T08:42:03.906Z,1008.16
2016-09-04T08:43:03.855Z,1008.13
2016-09-04T08:44:03.810Z,1008.14
2016-09-04T08:45:03.967Z,1008.17
2016-09-04T08:46:04.928Z,1008.16
2016-09-04T08:47:03.674Z,1008.11
2016-09-04T08:48:03.640Z,1008.06
2016-09-04T08:49:03.584Z,1008.04
2016-09-04T08:50:03.539Z,1008.02
2016-09-04T08:51:03.499Z,1007.99
2016-09-04T08:52:03.657Z,1007.96
2016-09-04T08:53:04.021Z,1007.98
2016-09-04T08:54:03.416Z,1007.95
2016-09-04T08:55:03.519Z,1007.94
2016-09-04T08:56:03.275Z,1007.9
2016-09-04T08:57:03.228Z,1007.86
2016-09-04T08:58:03.181Z,1007.83
2016-09-04T08:59:03.141Z,1007.82
2016-09-04T09:00:03.092Z,1007.77
2016-09-04T09:01:03.061Z,1007.69
2016-09-04T09:02:03.007Z,1007.68
2016-09-04T09:03:02.961Z,1007.62
2016-09-04T09:04:02.912Z,1007.61
2016-09-04T09:05:02.889Z,1007.66
2016-09-04T09:06:03.034Z,1007.65
2016-09-04T09:07:02.782Z,1007.64
2016-09-04T09:08:02.745Z,1007.63
2016-09-04T09:09:02.694Z,1007.58
2016-09-04T09:10:02.856Z,1007.61
2016-09-04T09:11:02.602Z,1007.54
2016-09-04T09:12:02.563Z,1007.51
2016-09-04T09:13:02.513Z,1007.51
2016-09-04T09:14:02.474Z,1007.5
2016-09-04T09:15:02.425Z,1007.51
2016-09-04T09:16:02.378Z,1007.54
2016-09-04T09:17:02.344Z,1007.54
2016-09-04T09:18:02.295Z,1007.47
2016-09-04T09:19:02.244Z,1007.44
2016-09-04T09:20:02.203Z,1007.43
2016-09-04T09:21:02.158Z,1007.4
2016-09-04T09:22:02.115Z,1007.43
2016-09-04T09:23:02.074Z,1007.41
2016-09-04T09:24:02.022Z,1007.42
2016-09-04T09:25:01.977Z,1007.4
2016-09-04T09:26:01.936Z,1007.4
2016-09-04T09:27:01.890Z,1007.36
2016-09-04T09:28:01.839Z,1007.44
2016-09-04T09:29:01.802Z,1007.47
2016-09-04T09:30:01.760Z,1007.38
2016-09-04T09:31:01.711Z,1007.37
2016-09-04T09:32:01.667Z,1007.34
2016-09-04T09:33:01.622Z,1007.34
2016-09-04T09:34:01.576Z,1007.35
2016-09-04T09:35:01.543Z,1007.31
2016-09-04T09:36:01.488Z,1007.31
2016-09-04T09:37:01.440Z,1007.27
2016-09-04T09:38:01.400Z,1007.21
2016-09-04T09:39:01.350Z,1007.23
2016-09-04T09:40:01.305Z,1007.16
2016-09-04T09:41:01.262Z,1007.16
2016-09-04T09:42:01.216Z,1007.06
2016-09-04T09:43:01.382Z,1007.06
2016-09-04T09:44:01.134Z,1007.16
2016-09-04T09:45:01.081Z,1007.21
2016-09-04T09:46:01.049Z,1007.19
2016-09-04T09:47:01.002Z,1007.17
2016-09-04T09:48:00.953Z,1007.18
2016-09-04T09:49:00.908Z,1007.15
2016-09-04T09:50:00.863Z,1007.18
2016-09-04T09:51:00.812Z,1007.26
2016-09-04T09:52:00.774Z,1007.31
2016-09-04T09:53:00.721Z,1007.42
2016-09-04T09:54:00.683Z,1007.39
2016-09-04T09:55:00.643Z,1007.39
2016-09-04T09:56:00.591Z,1007.44
2016-09-04T09:57:00.554Z,1007.46
2016-09-04T09:58:00.497Z,1007.51
2016-09-04T09:59:00.653Z,1007.56
2016-09-04T10:00:00.418Z,1007.48
2016-09-04T10:01:00.369Z,1007.41
2016-09-04T10:02:00.321Z,1007.45
2016-09-04T10:03:00.279Z,1007.49
2016-09-04T10:04:00.233Z,1007.48
2016-09-04T10:05:00.187Z,1007.52
2016-09-04T10:06:00.142Z,1007.53
2016-09-04T10:07:00.104Z,1007.54
2016-09-04T10:08:00.054Z,1007.51
2016-09-04T10:09:00.005Z,1007.57
2016-09-04T10:09:59.963Z,1007.52
2016-09-04T10:10:59.920Z,1007.54
